createdAt,value
2023-01-17T00:02:12.287Z,3.65
2023-01-17T00:04:57.965Z,3.90
2023-01-17T00:07:44.008Z,3.22
2023-01-17T00:10:12.507Z,3.75
2023-01-17T00:12:39.505Z,3.90
2023-01-17T00:15:06.950Z,3.70
2023-01-17T00:17:33.770Z,3.65
2023-01-17T00:20:20.295Z,3.75
2023-01-17T00:23:05.922Z,3.60
2023-01-17T00:25:52.589Z,4.13
2023-01-17T00:28:19.680Z,4.53
2023-01-17T00:30:46.493Z,3.90
2023-01-17T00:33:13.326Z,3.95
2023-01-17T00:35:40.200Z,4.95
2023-01-17T00:38:08.231Z,4.45
2023-01-17T00:40:35.866Z,4.28
2023-01-17T00:43:21.389Z,4.63
2023-01-17T00:46:07.137Z,4.60
2023-01-17T00:48:52.875Z,5.00
2023-01-17T00:51:38.690Z,4.95
2023-01-17T00:54:24.388Z,4.90
2023-01-17T00:57:10.007Z,4.30
2023-01-17T00:59:56.561Z,5.40
2023-01-17T01:02:42.616Z,5.80
2023-01-17T01:05:28.834Z,5.00
2023-01-17T01:08:15.020Z,5.30
2023-01-17T01:11:01.105Z,5.47
2023-01-17T01:13:47.799Z,5.28
2023-01-17T01:16:33.513Z,5.28
2023-01-17T01:19:19.158Z,5.82
2023-01-17T01:22:04.417Z,5.15
2023-01-17T01:24:49.956Z,4.82
2023-01-17T01:27:35.219Z,4.45
2023-01-17T01:30:20.758Z,5.43
2023-01-17T01:33:06.267Z,5.28
2023-01-17T01:35:33.125Z,5.32
2023-01-17T01:38:01.871Z,5.63
2023-01-17T01:40:28.649Z,4.40
2023-01-17T01:42:56.734Z,5.28
2023-01-17T01:45:25.078Z,4.90
2023-01-17T01:47:53.990Z,5.35
2023-01-17T01:50:21.332Z,5.63
2023-01-17T01:52:50.682Z,4.63
2023-01-17T01:55:19.495Z,5.07
2023-01-17T01:57:49.213Z,4.65
2023-01-17T02:00:17.658Z,5.10
2023-01-17T02:02:45.717Z,4.93
2023-01-17T02:05:13.678Z,4.68
2023-01-17T02:07:45.753Z,4.90
2023-01-17T02:10:12.902Z,4.80
2023-01-17T02:12:40.033Z,4.25
2023-01-17T02:15:07.721Z,4.82
2023-01-17T02:17:53.490Z,4.53
2023-01-17T02:20:32.660Z,5.03
2023-01-17T02:23:18.134Z,4.68
2023-01-17T02:25:47.991Z,5.50
2023-01-17T02:28:30.213Z,4.95
2023-01-17T02:31:08.629Z,5.00
2023-01-17T02:33:39.176Z,4.93
2023-01-17T02:36:06.323Z,4.88
2023-01-17T02:38:39.420Z,5.40
2023-01-17T02:41:15.437Z,4.80
2023-01-17T02:43:42.328Z,5.60
2023-01-17T02:46:09.979Z,4.65
2023-01-17T02:48:37.568Z,5.05
2023-01-17T02:51:24.901Z,4.78
2023-01-17T02:54:03.881Z,5.22
2023-01-17T02:56:36.890Z,4.50
2023-01-17T02:59:14.064Z,4.10
2023-01-17T03:01:59.646Z,4.85
2023-01-17T03:04:38.154Z,4.15
2023-01-17T03:09:32.379Z,3.55
2023-01-17T03:12:00.331Z,3.63
2023-01-17T03:14:30.125Z,4.03
2023-01-17T03:16:56.959Z,4.10
2023-01-17T03:19:23.744Z,5.03
2023-01-17T03:21:50.571Z,3.97
2023-01-17T03:24:17.356Z,4.43
2023-01-17T03:26:45.088Z,3.97
2023-01-17T03:29:11.939Z,4.13
2023-01-17T03:31:38.735Z,4.65
2023-01-17T03:34:05.603Z,4.57
2023-01-17T03:36:32.435Z,4.35
2023-01-17T03:38:59.226Z,4.10
2023-01-17T03:41:26.059Z,4.90
2023-01-17T03:43:52.876Z,4.25
2023-01-17T03:46:23.863Z,4.18
2023-01-17T03:48:51.076Z,4.32
2023-01-17T03:51:18.417Z,4.18
2023-01-17T03:53:47.041Z,4.45
2023-01-17T03:56:14.517Z,4.20
2023-01-17T03:58:41.396Z,4.82
2023-01-17T04:01:08.313Z,4.80
2023-01-17T04:03:35.243Z,4.50
2023-01-17T04:06:02.030Z,4.30
2023-01-17T04:08:29.428Z,3.97
2023-01-17T04:10:56.476Z,4.10
2023-01-17T04:13:23.322Z,4.20
2023-01-17T04:15:51.174Z,4.28
2023-01-17T04:18:19.154Z,4.07
2023-01-17T04:20:46.072Z,4.30
2023-01-17T04:23:12.921Z,4.30
2023-01-17T04:25:39.709Z,4.50
2023-01-17T04:28:06.564Z,4.25
2023-01-17T04:30:33.491Z,4.82
2023-01-17T04:33:00.322Z,3.95
2023-01-17T04:35:27.213Z,5.07
2023-01-17T04:37:54.005Z,3.65
2023-01-17T04:40:20.862Z,4.18
2023-01-17T04:42:47.986Z,3.85
2023-01-17T04:45:15.326Z,4.68
2023-01-17T04:47:42.106Z,4.38
2023-01-17T04:50:09.582Z,4.30
2023-01-17T04:52:36.406Z,4.28
2023-01-17T04:55:03.301Z,4.40
2023-01-17T04:57:30.121Z,3.97
2023-01-17T04:59:56.924Z,4.10
2023-01-17T05:02:23.735Z,4.35
2023-01-17T05:04:50.670Z,4.10
2023-01-17T05:07:17.523Z,4.13
2023-01-17T05:09:44.281Z,3.92
2023-01-17T05:12:11.134Z,3.70
2023-01-17T05:14:37.889Z,4.18
2023-01-17T05:17:04.711Z,3.80
2023-01-17T05:19:31.687Z,4.25
2023-01-17T05:22:04.142Z,4.05
2023-01-17T05:24:31.549Z,3.67
2023-01-17T05:27:03.117Z,3.67
2023-01-17T05:29:30.665Z,3.97
2023-01-17T05:31:57.903Z,3.60
2023-01-17T05:34:24.749Z,3.40
2023-01-17T05:36:51.636Z,3.60
2023-01-17T05:39:18.488Z,3.13
2023-01-17T05:41:45.348Z,3.83
2023-01-17T05:44:12.241Z,3.55
2023-01-17T05:46:39.037Z,3.15
2023-01-17T05:49:05.884Z,3.13
2023-01-17T05:51:33.022Z,3.65
2023-01-17T05:53:59.803Z,4.10
2023-01-17T05:56:26.643Z,3.78
2023-01-17T05:58:53.440Z,3.83
2023-01-17T06:01:20.324Z,3.65
2023-01-17T06:03:47.126Z,4.00
2023-01-17T06:06:13.967Z,3.70
2023-01-17T06:08:40.908Z,4.13
2023-01-17T06:11:07.705Z,3.30
2023-01-17T06:13:34.482Z,3.47
2023-01-17T06:16:03.016Z,3.90
2023-01-17T06:18:30.304Z,3.70
2023-01-17T06:20:57.709Z,3.20
2023-01-17T06:23:24.974Z,3.55
2023-01-17T06:25:52.164Z,4.03
2023-01-17T06:28:20.605Z,4.38
2023-01-17T06:30:47.781Z,4.13
2023-01-17T06:33:14.774Z,4.82
2023-01-17T06:35:51.722Z,3.75
2023-01-17T06:38:18.603Z,4.85
2023-01-17T06:40:45.450Z,3.85
2023-01-17T06:43:12.271Z,3.55
2023-01-17T06:45:39.195Z,3.42
2023-01-17T06:48:06.217Z,3.20
2023-01-17T06:50:33.411Z,3.72
2023-01-17T06:53:02.044Z,3.10
2023-01-17T06:55:29.598Z,3.35
2023-01-17T06:57:57.394Z,3.50
2023-01-17T07:00:24.487Z,3.42
2023-01-17T07:02:51.736Z,4.07
2023-01-17T07:05:18.724Z,3.17
2023-01-17T07:07:45.983Z,3.38
2023-01-17T07:10:13.389Z,2.92
2023-01-17T07:12:40.257Z,3.47
2023-01-17T07:15:07.797Z,2.95
2023-01-17T07:17:35.211Z,3.20
2023-01-17T07:20:02.068Z,3.65
2023-01-17T07:22:28.939Z,4.50
2023-01-17T07:24:58.783Z,4.07
2023-01-17T07:27:27.773Z,3.40
2023-01-17T07:29:54.644Z,3.42
2023-01-17T07:32:21.547Z,3.92
2023-01-17T07:34:48.902Z,3.38
2023-01-17T07:37:15.749Z,3.83
2023-01-17T07:39:42.588Z,3.60
2023-01-17T07:42:09.403Z,3.08
2023-01-17T07:44:36.244Z,3.08
2023-01-17T07:47:04.380Z,3.40
2023-01-17T07:49:31.231Z,3.00
2023-01-17T07:51:58.095Z,3.70
2023-01-17T07:54:24.936Z,3.55
2023-01-17T07:56:51.750Z,2.75
2023-01-17T07:59:18.583Z,3.03
2023-01-17T08:01:45.565Z,3.53
2023-01-17T08:04:14.189Z,2.88
2023-01-17T08:06:43.019Z,3.17
2023-01-17T08:09:09.813Z,2.75
2023-01-17T08:11:36.601Z,2.53
2023-01-17T08:14:03.389Z,2.90
2023-01-17T08:16:30.295Z,3.50
2023-01-17T08:18:57.464Z,2.72
2023-01-17T08:21:24.451Z,2.88
2023-01-17T08:23:51.703Z,2.80
2023-01-17T08:26:22.422Z,2.80
2023-01-17T08:28:50.177Z,2.47
2023-01-17T08:31:17.714Z,3.58
2023-01-17T08:33:44.564Z,3.60
2023-01-17T08:36:13.694Z,3.10
2023-01-17T08:38:40.556Z,3.10
2023-01-17T08:41:07.377Z,3.65
2023-01-17T08:43:34.146Z,2.83
2023-01-17T08:46:01.173Z,2.88
2023-01-17T08:48:28.072Z,3.92
2023-01-17T08:50:54.926Z,3.78
2023-01-17T08:53:23.223Z,4.35
2023-01-17T08:55:56.977Z,3.22
2023-01-17T08:58:23.796Z,3.50
2023-01-17T09:00:50.706Z,3.65
2023-01-17T09:03:17.549Z,4.97
2023-01-17T09:05:44.403Z,7.03
2023-01-17T09:08:11.316Z,5.45
2023-01-17T09:10:38.100Z,5.47
2023-01-17T09:13:07.747Z,4.35
2023-01-17T09:15:34.605Z,5.53
2023-01-17T09:18:01.670Z,5.32
2023-01-17T09:20:30.867Z,5.43
2023-01-17T09:22:57.765Z,3.72
2023-01-17T09:25:24.620Z,4.15
2023-01-17T09:27:51.590Z,3.85
2023-01-17T09:30:18.612Z,4.93
2023-01-17T09:32:52.094Z,4.45
2023-01-17T09:35:18.933Z,4.57
2023-01-17T09:37:48.725Z,5.07
2023-01-17T09:40:17.937Z,6.50
2023-01-17T09:42:45.399Z,5.88
2023-01-17T09:45:17.175Z,7.05
2023-01-17T09:47:45.216Z,6.40
2023-01-17T09:50:12.029Z,6.28
2023-01-17T09:52:38.875Z,5.70
2023-01-17T09:55:07.950Z,6.60
2023-01-17T09:57:38.425Z,5.50
2023-01-17T10:00:05.469Z,6.57
2023-01-17T10:02:32.393Z,8.10
2023-01-17T10:05:18.343Z,8.35
2023-01-17T10:08:02.019Z,9.35
2023-01-17T10:10:42.209Z,9.43
2023-01-17T10:13:15.538Z,12.95
2023-01-17T10:15:49.856Z,12.95
2023-01-17T10:18:29.997Z,12.63
2023-01-17T10:21:17.672Z,11.73
2023-01-17T10:23:53.295Z,14.25
2023-01-17T10:26:27.211Z,13.80
2023-01-17T10:29:00.823Z,11.68
2023-01-17T10:31:30.014Z,13.30
2023-01-17T10:33:57.857Z,12.40
2023-01-17T10:36:26.255Z,10.88
2023-01-17T10:38:55.351Z,11.07
2023-01-17T10:41:28.176Z,9.68
2023-01-17T10:44:04.276Z,10.48
2023-01-17T10:46:34.199Z,11.13
2023-01-17T10:49:02.386Z,11.00
2023-01-17T10:51:43.130Z,11.52
2023-01-17T10:54:33.221Z,9.73
2023-01-17T10:57:00.141Z,10.02
2023-01-17T10:59:31.844Z,8.77
2023-01-17T11:01:59.240Z,10.57
2023-01-17T11:04:26.015Z,9.82
2023-01-17T11:07:13.242Z,9.98
2023-01-17T11:09:41.399Z,9.38
2023-01-17T11:12:19.463Z,9.82
2023-01-17T11:15:09.602Z,8.30
2023-01-17T11:17:37.918Z,9.15
2023-01-17T11:20:17.284Z,9.30
2023-01-17T11:22:46.040Z,9.40
2023-01-17T11:25:22.112Z,9.40
2023-01-17T11:28:00.998Z,8.88
2023-01-17T11:30:29.639Z,9.63
2023-01-17T11:33:00.666Z,9.80
2023-01-17T11:35:27.498Z,10.52
2023-01-17T11:38:03.245Z,10.90
2023-01-17T11:40:43.419Z,10.82
2023-01-17T11:43:14.365Z,10.25
2023-01-17T11:45:41.614Z,11.35
2023-01-17T11:48:08.397Z,11.50
2023-01-17T11:50:37.558Z,11.65
2023-01-17T11:53:30.905Z,12.18
2023-01-17T11:55:57.679Z,11.05
2023-01-17T11:58:25.220Z,11.05
2023-01-17T12:01:15.409Z,12.15
2023-01-17T12:04:01.210Z,12.13
2023-01-17T12:06:39.835Z,11.77
2023-01-17T12:09:30.135Z,12.07
2023-01-17T12:12:33.217Z,11.98
2023-01-17T12:15:03.125Z,11.52
2023-01-17T12:17:48.767Z,10.73
2023-01-17T12:20:21.949Z,10.32
2023-01-17T12:23:01.013Z,10.00
2023-01-17T12:25:49.034Z,10.05
2023-01-17T12:28:24.676Z,10.18
2023-01-17T12:30:51.484Z,9.13
2023-01-17T12:33:21.452Z,9.63
2023-01-17T12:36:24.001Z,12.30
2023-01-17T12:38:50.815Z,18.02
2023-01-17T12:41:26.746Z,11.30
2023-01-17T12:43:56.459Z,7.15
2023-01-17T12:46:27.189Z,7.85
2023-01-17T12:48:56.210Z,10.65
2023-01-17T12:51:31.088Z,9.23
2023-01-17T12:54:16.075Z,10.05
2023-01-17T12:56:46.144Z,8.45
2023-01-17T12:59:22.002Z,9.55
2023-01-17T13:01:59.047Z,8.57
2023-01-17T13:04:57.458Z,8.38
2023-01-17T13:07:45.429Z,11.18
2023-01-17T13:10:14.960Z,9.27
2023-01-17T13:12:42.038Z,11.10
2023-01-17T13:15:17.057Z,10.15
2023-01-17T13:17:45.078Z,10.75
2023-01-17T13:20:28.818Z,9.65
2023-01-17T13:22:58.776Z,12.32
2023-01-17T13:25:32.016Z,11.25
2023-01-17T13:28:03.157Z,12.98
2023-01-17T13:30:33.115Z,11.18
2023-01-17T13:33:01.638Z,11.50
2023-01-17T13:35:40.041Z,11.02
2023-01-17T13:38:25.865Z,12.40
2023-01-17T13:41:05.862Z,11.25
2023-01-17T13:43:40.236Z,11.15
2023-01-17T13:46:07.289Z,12.00
2023-01-17T13:48:37.194Z,14.35
2023-01-17T13:51:11.159Z,14.65
2023-01-17T13:53:41.115Z,14.73
2023-01-17T13:56:25.533Z,14.60
2023-01-17T14:01:25.827Z,14.68
2023-01-17T14:03:52.754Z,13.48
2023-01-17T14:06:40.738Z,14.48
2023-01-17T14:09:13.120Z,13.80
2023-01-17T14:11:50.350Z,14.60
2023-01-17T14:14:36.942Z,12.88
2023-01-17T14:17:28.101Z,13.00
2023-01-17T14:20:01.213Z,12.40
2023-01-17T14:22:29.172Z,11.95
2023-01-17T14:24:59.050Z,11.80
2023-01-17T14:27:27.200Z,11.65
2023-01-17T14:29:56.948Z,11.40
2023-01-17T14:32:27.282Z,11.30
2023-01-17T14:34:54.289Z,12.05
2023-01-17T14:37:27.365Z,13.65
2023-01-17T14:39:54.267Z,12.98
2023-01-17T14:42:22.587Z,11.52
2023-01-17T14:44:50.973Z,11.57
2023-01-17T14:47:17.899Z,11.80
2023-01-17T14:49:44.821Z,10.55
2023-01-17T14:52:16.317Z,11.25
2023-01-17T14:54:50.465Z,10.35
2023-01-17T14:57:28.346Z,10.48
2023-01-17T15:00:11.124Z,10.88
2023-01-17T15:02:44.733Z,10.15
2023-01-17T15:05:13.254Z,10.63
2023-01-17T15:07:40.385Z,10.85
2023-01-17T15:10:10.517Z,9.48
2023-01-17T15:12:38.808Z,10.52
2023-01-17T15:15:25.697Z,9.95
2023-01-17T15:17:53.958Z,9.07
2023-01-17T15:20:20.918Z,8.88
2023-01-17T15:22:47.913Z,9.07
2023-01-17T15:25:16.232Z,9.00
2023-01-17T15:27:43.168Z,8.80
2023-01-17T15:30:13.479Z,8.13
2023-01-17T15:32:40.292Z,6.35
2023-01-17T15:35:16.080Z,6.00
2023-01-17T15:37:42.896Z,5.68
2023-01-17T15:40:23.178Z,5.47
2023-01-17T15:42:58.292Z,5.65
2023-01-17T15:45:29.490Z,5.95
2023-01-17T15:47:56.452Z,8.80
2023-01-17T15:50:27.869Z,11.40
2023-01-17T15:53:05.227Z,12.43
2023-01-17T15:55:36.094Z,11.13
2023-01-17T15:58:03.280Z,11.50
2023-01-17T16:00:40.636Z,12.23
2023-01-17T16:03:33.763Z,12.05
2023-01-17T16:06:01.230Z,12.93
2023-01-17T16:08:29.362Z,12.13
2023-01-17T16:10:59.274Z,12.85
2023-01-17T16:13:26.162Z,12.45
2023-01-17T16:15:53.124Z,13.52
2023-01-17T16:18:24.643Z,11.32
2023-01-17T16:21:01.985Z,12.18
2023-01-17T16:23:28.824Z,9.13
2023-01-17T16:25:55.689Z,7.85
2023-01-17T16:28:22.762Z,9.40
2023-01-17T16:30:49.621Z,9.35
2023-01-17T16:33:16.487Z,7.95
2023-01-17T16:35:43.265Z,7.88
2023-01-17T16:38:11.326Z,7.90
2023-01-17T16:40:43.925Z,9.30
2023-01-17T16:43:13.720Z,7.13
2023-01-17T16:45:41.526Z,7.07
2023-01-17T16:48:08.827Z,6.93
2023-01-17T16:50:35.648Z,6.50
2023-01-17T16:53:02.450Z,6.63
2023-01-17T16:55:29.276Z,7.53
2023-01-17T16:57:58.038Z,6.50
2023-01-17T17:00:26.844Z,7.75
2023-01-17T17:02:53.788Z,7.32
2023-01-17T17:05:20.651Z,6.95
2023-01-17T17:07:51.543Z,6.82
2023-01-17T17:10:19.883Z,6.43
2023-01-17T17:12:46.749Z,6.38
2023-01-17T17:15:14.074Z,6.63
2023-01-17T17:17:41.808Z,6.70
2023-01-17T17:20:12.830Z,6.65
2023-01-17T17:22:40.092Z,6.85
2023-01-17T17:25:07.327Z,6.65
2023-01-17T17:27:34.105Z,6.53
2023-01-17T17:30:00.943Z,6.22
2023-01-17T17:32:28.179Z,6.22
2023-01-17T17:34:55.017Z,6.68
2023-01-17T17:37:23.544Z,5.93
2023-01-17T17:39:50.429Z,5.97
2023-01-17T17:42:19.718Z,6.10
2023-01-17T17:44:46.552Z,6.40
2023-01-17T17:47:13.480Z,6.30
2023-01-17T17:49:40.255Z,6.63
2023-01-17T17:52:07.389Z,5.88
2023-01-17T17:54:34.517Z,6.30
2023-01-17T17:57:01.479Z,6.28
2023-01-17T17:59:28.574Z,6.20
2023-01-17T18:01:55.639Z,7.43
2023-01-17T18:04:24.856Z,7.57
2023-01-17T18:06:51.734Z,6.95
2023-01-17T18:09:18.679Z,6.85
2023-01-17T18:11:45.520Z,6.68
2023-01-17T18:14:13.183Z,6.57
2023-01-17T18:16:51.383Z,7.70
2023-01-17T18:22:07.877Z,6.38
2023-01-17T18:24:43.129Z,6.88
2023-01-17T18:27:20.958Z,7.13
2023-01-17T18:30:01.111Z,8.35
2023-01-17T18:35:23.987Z,7.32
2023-01-17T18:40:40.755Z,6.85
2023-01-17T18:43:22.092Z,7.63
2023-01-17T18:46:04.071Z,7.30
2023-01-17T18:48:45.140Z,8.00
2023-01-17T18:51:22.536Z,7.63
2023-01-17T18:54:07.245Z,7.32
2023-01-17T18:59:31.773Z,8.27
2023-01-17T19:02:04.590Z,8.05
2023-01-17T19:07:40.529Z,8.45
2023-01-17T19:10:12.139Z,8.35
2023-01-17T19:12:51.144Z,7.75
2023-01-17T19:15:33.302Z,8.00
2023-01-17T19:18:04.896Z,8.25
2023-01-17T19:20:36.350Z,8.02
2023-01-17T19:23:08.941Z,7.90
2023-01-17T19:25:39.537Z,8.82
2023-01-17T19:28:09.414Z,7.45
2023-01-17T19:30:56.674Z,8.48
2023-01-17T19:36:26.636Z,7.82
2023-01-17T19:39:05.884Z,7.68
2023-01-17T19:41:44.533Z,7.80
2023-01-17T19:44:16.025Z,9.02
2023-01-17T19:46:58.118Z,7.28
2023-01-17T19:49:26.022Z,8.65
2023-01-17T19:52:05.099Z,7.78
2023-01-17T19:54:36.025Z,8.32
2023-01-17T19:57:06.513Z,7.45
2023-01-17T20:02:20.511Z,6.85
2023-01-17T20:10:32.085Z,8.05
2023-01-17T20:13:15.971Z,8.02
2023-01-17T20:15:49.302Z,7.35
2023-01-17T20:18:20.993Z,7.10
2023-01-17T20:20:58.923Z,8.07
2023-01-17T20:23:32.664Z,8.73
2023-01-17T20:26:08.056Z,9.15
2023-01-17T20:34:07.371Z,8.27
2023-01-17T20:36:42.127Z,8.98
2023-01-17T20:39:18.883Z,8.45
2023-01-17T20:41:50.707Z,8.10
2023-01-17T20:44:33.880Z,9.10
2023-01-17T20:47:05.173Z,8.60
2023-01-17T20:49:37.960Z,9.00
2023-01-17T20:52:10.786Z,9.00
2023-01-17T20:54:49.209Z,9.02
2023-01-17T20:59:50.326Z,9.77
2023-01-17T21:02:17.294Z,10.25
2023-01-17T21:04:45.496Z,9.60
2023-01-17T21:07:12.334Z,10.00
2023-01-17T21:09:39.276Z,10.32
2023-01-17T21:12:06.091Z,10.10
2023-01-17T21:14:32.901Z,9.18
2023-01-17T21:16:59.860Z,9.98
2023-01-17T21:19:26.859Z,10.18
2023-01-17T21:21:53.782Z,9.85
2023-01-17T21:24:20.622Z,9.15
2023-01-17T21:26:47.547Z,8.27
2023-01-17T21:29:16.227Z,8.75
2023-01-17T21:31:43.384Z,8.77
2023-01-17T21:34:11.117Z,7.90
2023-01-17T21:36:39.109Z,7.88
2023-01-17T21:39:07.337Z,7.80
2023-01-17T21:41:35.825Z,8.30
2023-01-17T21:44:03.941Z,7.07
2023-01-17T21:46:30.800Z,7.32
2023-01-17T21:48:57.836Z,7.78
2023-01-17T21:51:24.891Z,6.75
2023-01-17T21:53:51.713Z,7.25
2023-01-17T21:56:37.149Z,6.75
2023-01-17T21:59:04.058Z,6.03
2023-01-17T22:01:33.042Z,6.30
2023-01-17T22:04:01.187Z,6.00
2023-01-17T22:06:29.291Z,6.07
2023-01-17T22:08:56.255Z,5.35
2023-01-17T22:11:24.397Z,5.45
2023-01-17T22:13:51.485Z,5.57
2023-01-17T22:16:20.059Z,6.13
2023-01-17T22:18:47.243Z,5.47
2023-01-17T22:21:15.240Z,5.13
2023-01-17T22:24:00.121Z,5.50
2023-01-17T22:26:28.666Z,5.72
2023-01-17T22:28:55.768Z,5.30
2023-01-17T22:31:24.223Z,5.30
2023-01-17T22:33:55.718Z,5.35
2023-01-17T22:36:23.158Z,4.80
2023-01-17T22:38:50.664Z,5.60
2023-01-17T22:41:20.146Z,5.72
2023-01-17T22:43:48.347Z,5.47
2023-01-17T22:46:16.607Z,6.05
2023-01-17T22:48:43.846Z,5.75
2023-01-17T22:51:11.887Z,5.30
2023-01-17T22:53:42.428Z,5.88
2023-01-17T22:56:10.423Z,5.22
2023-01-17T22:58:37.207Z,6.07
2023-01-17T23:01:08.251Z,6.35
2023-01-17T23:03:35.168Z,5.78
2023-01-17T23:06:07.955Z,6.82
2023-01-17T23:08:35.073Z,6.85
2023-01-17T23:11:40.197Z,7.30
2023-01-17T23:14:19.032Z,6.80
2023-01-17T23:17:06.148Z,6.75
2023-01-17T23:19:36.786Z,6.93
2023-01-17T23:22:17.500Z,7.43
2023-01-17T23:25:07.409Z,7.32
2023-01-17T23:27:57.183Z,6.80
2023-01-17T23:30:25.551Z,8.00
2023-01-17T23:32:53.667Z,7.57
2023-01-17T23:35:21.762Z,7.60
2023-01-17T23:38:07.255Z,8.05
2023-01-17T23:40:35.121Z,7.53
2023-01-17T23:43:20.576Z,5.28
2023-01-17T23:45:47.617Z,6.60
2023-01-17T23:48:14.481Z,6.60
2023-01-17T23:50:42.652Z,6.57
2023-01-17T23:53:09.602Z,6.35
2023-01-17T23:55:37.499Z,5.72
2023-01-17T23:58:08.564Z,6.20
